sensor_id;sensor_type;location;lat;lon;timestamp;P1;durP1;ratioP1;P2;durP2;ratioP2
41897;SDS011;27576;53.366;-1.498;2023-09-08T00:02:26;29.48;;;26.45;;
41897;SDS011;27576;53.366;-1.498;2023-09-08T00:04:53;27.92;;;25.08;;
41897;SDS011;27576;53.366;-1.498;2023-09-08T00:07:19;27.45;;;24.63;;
41897;SDS011;27576;53.366;-1.498;2023-09-08T00:09:45;29.48;;;26.05;;
41897;SDS011;27576;53.366;-1.498;2023-09-08T00:12:10;30.70;;;27.05;;
41897;SDS011;27576;53.366;-1.498;2023-09-08T00:14:35;28.45;;;25.52;;
41897;SDS011;27576;53.366;-1.498;2023-09-08T00:17:01;30.98;;;25.83;;
41897;SDS011;27576;53.366;-1.498;2023-09-08T00:19:26;30.35;;;27.00;;
41897;SDS011;27576;53.366;-1.498;2023-09-08T00:21:52;29.77;;;26.42;;
41897;SDS011;27576;53.366;-1.498;2023-09-08T00:24:17;28.02;;;23.45;;
41897;SDS011;27576;53.366;-1.498;2023-09-08T00:26:43;26.77;;;23.90;;
41897;SDS011;27576;53.366;-1.498;2023-09-08T00:29:08;29.80;;;25.90;;
41897;SDS011;27576;53.366;-1.498;2023-09-08T00:31:34;30.67;;;27.48;;
41897;SDS011;27576;53.366;-1.498;2023-09-08T00:33:59;34.38;;;30.67;;
41897;SDS011;27576;53.366;-1.498;2023-09-08T00:36:24;29.65;;;26.55;;
41897;SDS011;27576;53.366;-1.498;2023-09-08T00:38:50;30.48;;;27.38;;
41897;SDS011;27576;53.366;-1.498;2023-09-08T00:41:15;29.83;;;26.73;;
41897;SDS011;27576;53.366;-1.498;2023-09-08T00:43:41;31.45;;;28.20;;
41897;SDS011;27576;53.366;-1.498;2023-09-08T00:46:06;30.33;;;27.02;;
41897;SDS011;27576;53.366;-1.498;2023-09-08T00:48:32;30.90;;;27.45;;
41897;SDS011;27576;53.366;-1.498;2023-09-08T00:50:59;30.98;;;27.63;;
41897;SDS011;27576;53.366;-1.498;2023-09-08T00:53:24;31.05;;;27.73;;
41897;SDS011;27576;53.366;-1.498;2023-09-08T00:55:50;32.80;;;29.33;;
41897;SDS011;27576;53.366;-1.498;2023-09-08T00:58:16;35.20;;;31.50;;
41897;SDS011;27576;53.366;-1.498;2023-09-08T01:00:41;30.88;;;27.60;;
41897;SDS011;27576;53.366;-1.498;2023-09-08T01:03:07;32.28;;;28.85;;
41897;SDS011;27576;53.366;-1.498;2023-09-08T01:05:32;31.88;;;28.77;;
41897;SDS011;27576;53.366;-1.498;2023-09-08T01:07:58;32.97;;;29.48;;
41897;SDS011;27576;53.366;-1.498;2023-09-08T01:10:24;32.65;;;29.20;;
41897;SDS011;27576;53.366;-1.498;2023-09-08T01:12:50;33.38;;;29.90;;
41897;SDS011;27576;53.366;-1.498;2023-09-08T01:15:15;32.92;;;29.25;;
41897;SDS011;27576;53.366;-1.498;2023-09-08T01:17:40;32.95;;;26.83;;
41897;SDS011;27576;53.366;-1.498;2023-09-08T01:20:07;32.25;;;28.75;;
41897;SDS011;27576;53.366;-1.498;2023-09-08T01:25:35;32.22;;;28.83;;
41897;SDS011;27576;53.366;-1.498;2023-09-08T01:28:10;30.52;;;27.33;;
41897;SDS011;27576;53.366;-1.498;2023-09-08T01:30:37;33.40;;;29.73;;
41897;SDS011;27576;53.366;-1.498;2023-09-08T01:33:03;33.45;;;29.95;;
41897;SDS011;27576;53.366;-1.498;2023-09-08T01:35:29;32.35;;;28.95;;
41897;SDS011;27576;53.366;-1.498;2023-09-08T01:37:55;28.27;;;24.10;;
41897;SDS011;27576;53.366;-1.498;2023-09-08T01:40:20;32.78;;;29.30;;
41897;SDS011;27576;53.366;-1.498;2023-09-08T01:42:47;33.53;;;30.23;;
41897;SDS011;27576;53.366;-1.498;2023-09-08T01:45:12;30.58;;;27.30;;
41897;SDS011;27576;53.366;-1.498;2023-09-08T01:47:38;35.55;;;30.60;;
41897;SDS011;27576;53.366;-1.498;2023-09-08T01:50:03;31.83;;;26.55;;
41897;SDS011;27576;53.366;-1.498;2023-09-08T01:52:29;32.85;;;29.27;;
41897;SDS011;27576;53.366;-1.498;2023-09-08T01:54:54;33.00;;;29.13;;
41897;SDS011;27576;53.366;-1.498;2023-09-08T01:57:20;35.25;;;31.52;;
41897;SDS011;27576;53.366;-1.498;2023-09-08T01:59:45;30.17;;;26.73;;
41897;SDS011;27576;53.366;-1.498;2023-09-08T02:02:11;30.95;;;26.67;;
41897;SDS011;27576;53.366;-1.498;2023-09-08T02:04:36;32.70;;;29.33;;
41897;SDS011;27576;53.366;-1.498;2023-09-08T02:07:02;28.42;;;25.42;;
41897;SDS011;27576;53.366;-1.498;2023-09-08T02:11:58;33.95;;;30.45;;
41897;SDS011;27576;53.366;-1.498;2023-09-08T02:14:23;37.20;;;33.20;;
41897;SDS011;27576;53.366;-1.498;2023-09-08T02:16:49;35.05;;;31.35;;
41897;SDS011;27576;53.366;-1.498;2023-09-08T02:19:14;33.67;;;30.02;;
41897;SDS011;27576;53.366;-1.498;2023-09-08T02:21:39;33.75;;;30.15;;
41897;SDS011;27576;53.366;-1.498;2023-09-08T02:24:05;37.38;;;33.38;;
41897;SDS011;27576;53.366;-1.498;2023-09-08T02:26:30;34.33;;;30.35;;
41897;SDS011;27576;53.366;-1.498;2023-09-08T02:28:58;38.42;;;34.38;;
41897;SDS011;27576;53.366;-1.498;2023-09-08T02:31:23;33.38;;;29.92;;
41897;SDS011;27576;53.366;-1.498;2023-09-08T02:33:48;36.97;;;32.67;;
41897;SDS011;27576;53.366;-1.498;2023-09-08T02:36:14;35.33;;;31.75;;
41897;SDS011;27576;53.366;-1.498;2023-09-08T02:38:39;40.95;;;36.75;;
41897;SDS011;27576;53.366;-1.498;2023-09-08T02:41:04;39.45;;;35.40;;
41897;SDS011;27576;53.366;-1.498;2023-09-08T02:43:30;37.70;;;31.45;;
41897;SDS011;27576;53.366;-1.498;2023-09-08T02:45:55;33.92;;;30.42;;
41897;SDS011;27576;53.366;-1.498;2023-09-08T02:48:21;39.00;;;34.80;;
41897;SDS011;27576;53.366;-1.498;2023-09-08T02:50:46;34.00;;;30.23;;
41897;SDS011;27576;53.366;-1.498;2023-09-08T02:53:11;35.10;;;31.33;;
41897;SDS011;27576;53.366;-1.498;2023-09-08T02:55:37;39.17;;;35.08;;
41897;SDS011;27576;53.366;-1.498;2023-09-08T02:58:02;36.05;;;31.85;;
41897;SDS011;27576;53.366;-1.498;2023-09-08T03:00:28;35.55;;;32.00;;
41897;SDS011;27576;53.366;-1.498;2023-09-08T03:02:54;38.08;;;34.00;;
41897;SDS011;27576;53.366;-1.498;2023-09-08T03:05:20;37.38;;;33.33;;
41897;SDS011;27576;53.366;-1.498;2023-09-08T03:07:47;32.88;;;29.02;;
41897;SDS011;27576;53.366;-1.498;2023-09-08T03:10:13;39.47;;;35.15;;
41897;SDS011;27576;53.366;-1.498;2023-09-08T03:12:38;37.30;;;33.45;;
41897;SDS011;27576;53.366;-1.498;2023-09-08T03:15:04;39.33;;;35.13;;
41897;SDS011;27576;53.366;-1.498;2023-09-08T03:17:30;37.47;;;33.55;;
41897;SDS011;27576;53.366;-1.498;2023-09-08T03:19:55;37.17;;;32.88;;
41897;SDS011;27576;53.366;-1.498;2023-09-08T03:22:20;34.78;;;31.15;;
41897;SDS011;27576;53.366;-1.498;2023-09-08T03:24:46;36.20;;;32.30;;
41897;SDS011;27576;53.366;-1.498;2023-09-08T03:27:11;35.15;;;30.92;;
41897;SDS011;27576;53.366;-1.498;2023-09-08T03:29:37;37.30;;;32.22;;
41897;SDS011;27576;53.366;-1.498;2023-09-08T03:32:02;35.55;;;32.10;;
41897;SDS011;27576;53.366;-1.498;2023-09-08T03:34:27;35.15;;;31.60;;
41897;SDS011;27576;53.366;-1.498;2023-09-08T03:36:53;34.97;;;31.08;;
41897;SDS011;27576;53.366;-1.498;2023-09-08T03:39:19;39.85;;;35.55;;
41897;SDS011;27576;53.366;-1.498;2023-09-08T03:41:44;38.10;;;34.00;;
41897;SDS011;27576;53.366;-1.498;2023-09-08T03:44:10;36.65;;;32.78;;
41897;SDS011;27576;53.366;-1.498;2023-09-08T03:46:35;38.47;;;34.58;;
41897;SDS011;27576;53.366;-1.498;2023-09-08T03:49:01;35.78;;;31.85;;
41897;SDS011;27576;53.366;-1.498;2023-09-08T03:51:27;37.10;;;33.10;;
41897;SDS011;27576;53.366;-1.498;2023-09-08T03:53:53;35.97;;;32.25;;
41897;SDS011;27576;53.366;-1.498;2023-09-08T03:56:18;34.83;;;30.77;;
41897;SDS011;27576;53.366;-1.498;2023-09-08T03:58:45;33.70;;;30.25;;
41897;SDS011;27576;53.366;-1.498;2023-09-08T04:01:11;33.67;;;30.25;;
41897;SDS011;27576;53.366;-1.498;2023-09-08T04:03:36;41.38;;;37.03;;
41897;SDS011;27576;53.366;-1.498;2023-09-08T04:06:01;33.63;;;29.98;;
41897;SDS011;27576;53.366;-1.498;2023-09-08T04:08:27;38.10;;;34.15;;
41897;SDS011;27576;53.366;-1.498;2023-09-08T04:10:52;38.45;;;34.30;;
41897;SDS011;27576;53.366;-1.498;2023-09-08T04:13:17;41.72;;;37.30;;
41897;SDS011;27576;53.366;-1.498;2023-09-08T04:15:43;37.00;;;33.03;;
41897;SDS011;27576;53.366;-1.498;2023-09-08T04:18:08;33.42;;;29.05;;
41897;SDS011;27576;53.366;-1.498;2023-09-08T04:20:34;34.22;;;30.63;;
41897;SDS011;27576;53.366;-1.498;2023-09-08T04:22:59;32.95;;;29.58;;
41897;SDS011;27576;53.366;-1.498;2023-09-08T04:25:25;31.15;;;27.95;;
41897;SDS011;27576;53.366;-1.498;2023-09-08T04:27:50;32.75;;;29.45;;
41897;SDS011;27576;53.366;-1.498;2023-09-08T04:30:15;36.95;;;32.25;;
41897;SDS011;27576;53.366;-1.498;2023-09-08T04:32:42;30.58;;;27.35;;
41897;SDS011;27576;53.366;-1.498;2023-09-08T04:35:08;34.38;;;30.67;;
41897;SDS011;27576;53.366;-1.498;2023-09-08T04:37:34;32.88;;;29.40;;
41897;SDS011;27576;53.366;-1.498;2023-09-08T04:39:59;33.80;;;29.52;;
41897;SDS011;27576;53.366;-1.498;2023-09-08T04:42:25;35.63;;;31.48;;
41897;SDS011;27576;53.366;-1.498;2023-09-08T04:44:50;38.55;;;34.42;;
41897;SDS011;27576;53.366;-1.498;2023-09-08T04:47:16;33.65;;;30.17;;
41897;SDS011;27576;53.366;-1.498;2023-09-08T04:49:41;36.97;;;32.50;;
41897;SDS011;27576;53.366;-1.498;2023-09-08T04:52:06;41.42;;;37.05;;
41897;SDS011;27576;53.366;-1.498;2023-09-08T04:54:32;44.40;;;37.60;;
41897;SDS011;27576;53.366;-1.498;2023-09-08T04:56:57;37.17;;;32.78;;
41897;SDS011;27576;53.366;-1.498;2023-09-08T04:59:23;37.15;;;33.00;;
41897;SDS011;27576;53.366;-1.498;2023-09-08T05:01:48;36.70;;;32.85;;
41897;SDS011;27576;53.366;-1.498;2023-09-08T05:04:16;33.67;;;30.02;;
41897;SDS011;27576;53.366;-1.498;2023-09-08T05:06:42;37.47;;;33.67;;
41897;SDS011;27576;53.366;-1.498;2023-09-08T05:09:07;38.42;;;32.00;;
41897;SDS011;27576;53.366;-1.498;2023-09-08T05:11:32;33.10;;;29.50;;
41897;SDS011;27576;53.366;-1.498;2023-09-08T05:13:58;35.20;;;31.42;;
41897;SDS011;27576;53.366;-1.498;2023-09-08T05:16:23;36.70;;;31.17;;
41897;SDS011;27576;53.366;-1.498;2023-09-08T05:19:04;37.72;;;33.75;;
41897;SDS011;27576;53.366;-1.498;2023-09-08T05:21:31;34.78;;;30.95;;
41897;SDS011;27576;53.366;-1.498;2023-09-08T05:23:57;37.40;;;32.80;;
41897;SDS011;27576;53.366;-1.498;2023-09-08T05:26:22;38.15;;;34.10;;
41897;SDS011;27576;53.366;-1.498;2023-09-08T05:28:47;34.67;;;29.33;;
41897;SDS011;27576;53.366;-1.498;2023-09-08T05:31:13;34.50;;;30.42;;
41897;SDS011;27576;53.366;-1.498;2023-09-08T05:33:38;36.15;;;32.28;;
41897;SDS011;27576;53.366;-1.498;2023-09-08T05:36:03;38.00;;;33.92;;
41897;SDS011;27576;53.366;-1.498;2023-09-08T05:38:29;35.33;;;31.48;;
41897;SDS011;27576;53.366;-1.498;2023-09-08T05:40:55;33.92;;;30.33;;
41897;SDS011;27576;53.366;-1.498;2023-09-08T05:43:20;35.35;;;31.67;;
41897;SDS011;27576;53.366;-1.498;2023-09-08T05:45:46;34.88;;;31.27;;
41897;SDS011;27576;53.366;-1.498;2023-09-08T05:48:11;33.55;;;30.02;;
41897;SDS011;27576;53.366;-1.498;2023-09-08T05:50:37;35.97;;;32.10;;
41897;SDS011;27576;53.366;-1.498;2023-09-08T05:53:02;35.55;;;31.77;;
41897;SDS011;27576;53.366;-1.498;2023-09-08T05:55:27;39.17;;;34.67;;
41897;SDS011;27576;53.366;-1.498;2023-09-08T05:57:53;39.22;;;34.95;;
41897;SDS011;27576;53.366;-1.498;2023-09-08T06:00:18;41.13;;;34.72;;
41897;SDS011;27576;53.366;-1.498;2023-09-08T06:02:44;38.53;;;34.33;;
41897;SDS011;27576;53.366;-1.498;2023-09-08T06:05:10;39.65;;;34.17;;
41897;SDS011;27576;53.366;-1.498;2023-09-08T06:07:35;37.03;;;33.08;;
41897;SDS011;27576;53.366;-1.498;2023-09-08T06:10:00;40.53;;;36.10;;
41897;SDS011;27576;53.366;-1.498;2023-09-08T06:12:26;40.95;;;35.80;;
41897;SDS011;27576;53.366;-1.498;2023-09-08T06:14:51;34.55;;;30.83;;
41897;SDS011;27576;53.366;-1.498;2023-09-08T06:17:16;37.67;;;33.45;;
41897;SDS011;27576;53.366;-1.498;2023-09-08T06:19:42;36.95;;;32.03;;
41897;SDS011;27576;53.366;-1.498;2023-09-08T06:22:07;40.28;;;34.75;;
41897;SDS011;27576;53.366;-1.498;2023-09-08T06:24:32;39.45;;;34.30;;
41897;SDS011;27576;53.366;-1.498;2023-09-08T06:26:58;41.05;;;34.72;;
41897;SDS011;27576;53.366;-1.498;2023-09-08T06:29:23;41.17;;;35.30;;
41897;SDS011;27576;53.366;-1.498;2023-09-08T06:31:48;37.90;;;33.80;;
41897;SDS011;27576;53.366;-1.498;2023-09-08T06:34:14;37.10;;;32.80;;
41897;SDS011;27576;53.366;-1.498;2023-09-08T06:36:39;35.83;;;32.05;;
41897;SDS011;27576;53.366;-1.498;2023-09-08T06:39:04;39.53;;;32.50;;
41897;SDS011;27576;53.366;-1.498;2023-09-08T06:41:30;34.00;;;30.25;;
41897;SDS011;27576;53.366;-1.498;2023-09-08T06:43:55;38.78;;;34.58;;
41897;SDS011;27576;53.366;-1.498;2023-09-08T06:46:20;37.33;;;32.97;;
41897;SDS011;27576;53.366;-1.498;2023-09-08T06:48:46;38.55;;;33.83;;
41897;SDS011;27576;53.366;-1.498;2023-09-08T06:51:11;36.63;;;32.70;;
41897;SDS011;27576;53.366;-1.498;2023-09-08T06:53:37;36.85;;;32.90;;
41897;SDS011;27576;53.366;-1.498;2023-09-08T06:56:03;36.20;;;32.35;;
41897;SDS011;27576;53.366;-1.498;2023-09-08T06:58:28;33.75;;;30.10;;
41897;SDS011;27576;53.366;-1.498;2023-09-08T07:00:53;35.10;;;31.27;;
41897;SDS011;27576;53.366;-1.498;2023-09-08T07:03:19;39.47;;;34.88;;
41897;SDS011;27576;53.366;-1.498;2023-09-08T07:05:47;34.42;;;30.80;;
41897;SDS011;27576;53.366;-1.498;2023-09-08T07:08:12;35.15;;;31.33;;
41897;SDS011;27576;53.366;-1.498;2023-09-08T07:10:38;33.92;;;30.42;;
41897;SDS011;27576;53.366;-1.498;2023-09-08T07:13:03;39.00;;;33.25;;
41897;SDS011;27576;53.366;-1.498;2023-09-08T07:15:29;36.13;;;32.33;;
41897;SDS011;27576;53.366;-1.498;2023-09-08T07:17:54;33.13;;;29.13;;
41897;SDS011;27576;53.366;-1.498;2023-09-08T07:20:20;29.45;;;26.38;;
41897;SDS011;27576;53.366;-1.498;2023-09-08T07:22:45;26.13;;;22.83;;
41897;SDS011;27576;53.366;-1.498;2023-09-08T07:25:12;34.88;;;31.05;;
41897;SDS011;27576;53.366;-1.498;2023-09-08T07:27:38;35.95;;;31.70;;
41897;SDS011;27576;53.366;-1.498;2023-09-08T07:30:03;35.15;;;31.52;;
41897;SDS011;27576;53.366;-1.498;2023-09-08T07:32:29;27.95;;;25.13;;
41897;SDS011;27576;53.366;-1.498;2023-09-08T07:34:55;25.60;;;22.55;;
41897;SDS011;27576;53.366;-1.498;2023-09-08T07:37:21;27.98;;;24.52;;
41897;SDS011;27576;53.366;-1.498;2023-09-08T07:39:47;30.92;;;27.70;;
41897;SDS011;27576;53.366;-1.498;2023-09-08T07:42:13;30.17;;;27.10;;
41897;SDS011;27576;53.366;-1.498;2023-09-08T07:44:38;25.30;;;22.58;;
41897;SDS011;27576;53.366;-1.498;2023-09-08T07:47:04;34.60;;;30.90;;
41897;SDS011;27576;53.366;-1.498;2023-09-08T07:49:29;36.03;;;32.13;;
41897;SDS011;27576;53.366;-1.498;2023-09-08T07:51:54;34.17;;;30.45;;
41897;SDS011;27576;53.366;-1.498;2023-09-08T07:54:20;33.75;;;28.27;;
41897;SDS011;27576;53.366;-1.498;2023-09-08T07:56:46;27.13;;;22.67;;
41897;SDS011;27576;53.366;-1.498;2023-09-08T07:59:12;24.15;;;21.75;;
41897;SDS011;27576;53.366;-1.498;2023-09-08T08:01:37;20.38;;;18.35;;
41897;SDS011;27576;53.366;-1.498;2023-09-08T08:04:03;26.88;;;23.63;;
41897;SDS011;27576;53.366;-1.498;2023-09-08T08:06:28;31.95;;;27.35;;
41897;SDS011;27576;53.366;-1.498;2023-09-08T08:08:54;26.55;;;23.52;;
41897;SDS011;27576;53.366;-1.498;2023-09-08T08:11:21;26.95;;;23.25;;
41897;SDS011;27576;53.366;-1.498;2023-09-08T08:13:47;24.08;;;21.58;;
41897;SDS011;27576;53.366;-1.498;2023-09-08T08:16:12;25.17;;;21.80;;
41897;SDS011;27576;53.366;-1.498;2023-09-08T08:18:37;28.00;;;25.00;;
41897;SDS011;27576;53.366;-1.498;2023-09-08T08:21:03;36.10;;;32.03;;
41897;SDS011;27576;53.366;-1.498;2023-09-08T08:23:29;37.35;;;33.35;;
41897;SDS011;27576;53.366;-1.498;2023-09-08T08:25:55;36.63;;;32.72;;
41897;SDS011;27576;53.366;-1.498;2023-09-08T08:28:21;31.90;;;27.52;;
41897;SDS011;27576;53.366;-1.498;2023-09-08T08:30:47;27.58;;;24.23;;
41897;SDS011;27576;53.366;-1.498;2023-09-08T08:33:12;26.73;;;23.17;;
41897;SDS011;27576;53.366;-1.498;2023-09-08T08:35:38;24.90;;;22.27;;
41897;SDS011;27576;53.366;-1.498;2023-09-08T08:38:04;24.63;;;21.17;;
41897;SDS011;27576;53.366;-1.498;2023-09-08T08:40:30;28.27;;;25.38;;
41897;SDS011;27576;53.366;-1.498;2023-09-08T08:42:56;23.52;;;21.00;;
41897;SDS011;27576;53.366;-1.498;2023-09-08T08:45:25;23.08;;;20.42;;
41897;SDS011;27576;53.366;-1.498;2023-09-08T08:47:51;24.70;;;22.00;;
41897;SDS011;27576;53.366;-1.498;2023-09-08T08:50:18;30.38;;;25.25;;
41897;SDS011;27576;53.366;-1.498;2023-09-08T08:52:44;25.60;;;21.52;;
41897;SDS011;27576;53.366;-1.498;2023-09-08T08:55:10;33.08;;;27.48;;
41897;SDS011;27576;53.366;-1.498;2023-09-08T08:57:39;26.00;;;23.30;;
41897;SDS011;27576;53.366;-1.498;2023-09-08T09:00:06;25.98;;;22.60;;
41897;SDS011;27576;53.366;-1.498;2023-09-08T09:02:37;27.23;;;24.45;;
41897;SDS011;27576;53.366;-1.498;2023-09-08T09:05:04;25.35;;;22.40;;
41897;SDS011;27576;53.366;-1.498;2023-09-08T09:07:30;19.70;;;17.67;;
41897;SDS011;27576;53.366;-1.498;2023-09-08T09:09:57;26.15;;;23.45;;
41897;SDS011;27576;53.366;-1.498;2023-09-08T09:12:22;27.83;;;25.00;;
41897;SDS011;27576;53.366;-1.498;2023-09-08T09:14:52;19.40;;;17.13;;
41897;SDS011;27576;53.366;-1.498;2023-09-08T09:17:18;19.05;;;17.10;;
41897;SDS011;27576;53.366;-1.498;2023-09-08T09:19:44;27.63;;;20.98;;
41897;SDS011;27576;53.366;-1.498;2023-09-08T09:22:09;25.98;;;18.88;;
41897;SDS011;27576;53.366;-1.498;2023-09-08T09:27:06;16.42;;;14.82;;
41897;SDS011;27576;53.366;-1.498;2023-09-08T09:29:32;24.33;;;19.83;;
41897;SDS011;27576;53.366;-1.498;2023-09-08T09:32:05;27.42;;;22.63;;
41897;SDS011;27576;53.366;-1.498;2023-09-08T09:34:33;27.23;;;21.50;;
41897;SDS011;27576;53.366;-1.498;2023-09-08T09:36:59;27.15;;;19.70;;
41897;SDS011;27576;53.366;-1.498;2023-09-08T09:39:25;21.15;;;18.65;;
41897;SDS011;27576;53.366;-1.498;2023-09-08T09:41:55;21.10;;;16.98;;
41897;SDS011;27576;53.366;-1.498;2023-09-08T09:44:22;17.08;;;15.45;;
41897;SDS011;27576;53.366;-1.498;2023-09-08T09:46:48;17.08;;;13.43;;
41897;SDS011;27576;53.366;-1.498;2023-09-08T09:49:14;23.17;;;15.38;;
41897;SDS011;27576;53.366;-1.498;2023-09-08T09:51:43;16.42;;;13.65;;
41897;SDS011;27576;53.366;-1.498;2023-09-08T09:54:09;22.15;;;19.75;;
41897;SDS011;27576;53.366;-1.498;2023-09-08T09:56:35;18.02;;;13.82;;
41897;SDS011;27576;53.366;-1.498;2023-09-08T09:59:03;13.70;;;12.30;;
41897;SDS011;27576;53.366;-1.498;2023-09-08T10:01:29;19.98;;;16.33;;
41897;SDS011;27576;53.366;-1.498;2023-09-08T10:03:56;22.35;;;16.73;;
41897;SDS011;27576;53.366;-1.498;2023-09-08T10:06:22;20.52;;;18.48;;
41897;SDS011;27576;53.366;-1.498;2023-09-08T10:08:48;21.90;;;18.63;;
41897;SDS011;27576;53.366;-1.498;2023-09-08T10:11:16;19.92;;;17.92;;
41897;SDS011;27576;53.366;-1.498;2023-09-08T10:13:46;18.30;;;16.02;;
41897;SDS011;27576;53.366;-1.498;2023-09-08T10:16:15;15.10;;;13.52;;
41897;SDS011;27576;53.366;-1.498;2023-09-08T10:18:44;17.73;;;15.98;;
41897;SDS011;27576;53.366;-1.498;2023-09-08T10:21:11;19.23;;;15.15;;
41897;SDS011;27576;53.366;-1.498;2023-09-08T10:23:41;11.88;;;10.27;;
41897;SDS011;27576;53.366;-1.498;2023-09-08T10:26:10;11.55;;;10.38;;
41897;SDS011;27576;53.366;-1.498;2023-09-08T10:28:37;13.73;;;11.38;;
41897;SDS011;27576;53.366;-1.498;2023-09-08T10:31:03;14.32;;;12.07;;
41897;SDS011;27576;53.366;-1.498;2023-09-08T10:33:30;16.05;;;13.30;;
41897;SDS011;27576;53.366;-1.498;2023-09-08T10:35:56;23.85;;;17.60;;
41897;SDS011;27576;53.366;-1.498;2023-09-08T10:38:26;14.45;;;12.98;;
41897;SDS011;27576;53.366;-1.498;2023-09-08T10:40:53;19.65;;;15.55;;
41897;SDS011;27576;53.366;-1.498;2023-09-08T10:43:38;16.45;;;13.40;;
41897;SDS011;27576;53.366;-1.498;2023-09-08T10:46:10;16.58;;;11.85;;
41897;SDS011;27576;53.366;-1.498;2023-09-08T10:48:46;12.93;;;9.25;;
41897;SDS011;27576;53.366;-1.498;2023-09-08T10:51:14;7.63;;;6.93;;
41897;SDS011;27576;53.366;-1.498;2023-09-08T10:53:41;7.35;;;6.68;;
41897;SDS011;27576;53.366;-1.498;2023-09-08T10:56:07;8.88;;;7.95;;
41897;SDS011;27576;53.366;-1.498;2023-09-08T11:01:00;11.43;;;8.65;;
41897;SDS011;27576;53.366;-1.498;2023-09-08T11:06:08;10.10;;;8.88;;
41897;SDS011;27576;53.366;-1.498;2023-09-08T11:08:36;8.68;;;7.78;;
41897;SDS011;27576;53.366;-1.498;2023-09-08T11:11:07;16.23;;;10.27;;
41897;SDS011;27576;53.366;-1.498;2023-09-08T11:13:32;12.27;;;10.95;;
41897;SDS011;27576;53.366;-1.498;2023-09-08T11:15:58;9.35;;;8.32;;
41897;SDS011;27576;53.366;-1.498;2023-09-08T11:18:30;12.20;;;9.82;;
41897;SDS011;27576;53.366;-1.498;2023-09-08T11:20:56;10.05;;;8.60;;
41897;SDS011;27576;53.366;-1.498;2023-09-08T11:23:22;13.93;;;8.52;;
41897;SDS011;27576;53.366;-1.498;2023-09-08T11:25:49;9.00;;;7.35;;
41897;SDS011;27576;53.366;-1.498;2023-09-08T11:28:15;10.10;;;8.90;;
41897;SDS011;27576;53.366;-1.498;2023-09-08T11:30:41;11.75;;;7.75;;
41897;SDS011;27576;53.366;-1.498;2023-09-08T11:33:13;13.68;;;8.93;;
41897;SDS011;27576;53.366;-1.498;2023-09-08T11:35:39;11.30;;;9.48;;
41897;SDS011;27576;53.366;-1.498;2023-09-08T11:38:05;9.85;;;8.32;;
41897;SDS011;27576;53.366;-1.498;2023-09-08T11:40:30;14.02;;;9.43;;
41897;SDS011;27576;53.366;-1.498;2023-09-08T11:42:56;10.98;;;8.45;;
41897;SDS011;27576;53.366;-1.498;2023-09-08T11:45:21;14.10;;;8.77;;
41897;SDS011;27576;53.366;-1.498;2023-09-08T11:47:48;14.63;;;7.65;;
41897;SDS011;27576;53.366;-1.498;2023-09-08T11:50:14;13.27;;;9.05;;
41897;SDS011;27576;53.366;-1.498;2023-09-08T11:52:47;11.00;;;8.30;;
41897;SDS011;27576;53.366;-1.498;2023-09-08T11:55:14;11.95;;;7.82;;
41897;SDS011;27576;53.366;-1.498;2023-09-08T11:57:41;16.45;;;8.55;;
41897;SDS011;27576;53.366;-1.498;2023-09-08T12:00:08;7.57;;;6.78;;
41897;SDS011;27576;53.366;-1.498;2023-09-08T12:02:37;11.15;;;8.32;;
41897;SDS011;27576;53.366;-1.498;2023-09-08T12:05:03;9.77;;;8.70;;
41897;SDS011;27576;53.366;-1.498;2023-09-08T12:07:29;10.70;;;8.60;;
41897;SDS011;27576;53.366;-1.498;2023-09-08T12:09:54;13.32;;;7.15;;
41897;SDS011;27576;53.366;-1.498;2023-09-08T12:12:20;7.22;;;6.03;;
41897;SDS011;27576;53.366;-1.498;2023-09-08T12:14:46;8.38;;;6.43;;
41897;SDS011;27576;53.366;-1.498;2023-09-08T12:17:11;9.07;;;7.13;;
41897;SDS011;27576;53.366;-1.498;2023-09-08T12:19:40;10.52;;;8.90;;
41897;SDS011;27576;53.366;-1.498;2023-09-08T12:22:06;7.72;;;7.03;;
41897;SDS011;27576;53.366;-1.498;2023-09-08T12:24:46;10.18;;;8.77;;
41897;SDS011;27576;53.366;-1.498;2023-09-08T12:27:18;14.77;;;8.02;;
41897;SDS011;27576;53.366;-1.498;2023-09-08T12:29:57;9.82;;;8.35;;
41897;SDS011;27576;53.366;-1.498;2023-09-08T12:32:25;12.13;;;7.78;;
41897;SDS011;27576;53.366;-1.498;2023-09-08T12:34:52;9.63;;;7.60;;
41897;SDS011;27576;53.366;-1.498;2023-09-08T12:37:24;8.07;;;6.60;;
41897;SDS011;27576;53.366;-1.498;2023-09-08T12:39:52;15.13;;;8.32;;
41897;SDS011;27576;53.366;-1.498;2023-09-08T12:42:18;9.50;;;6.95;;
41897;SDS011;27576;53.366;-1.498;2023-09-08T12:44:44;13.48;;;9.35;;
41897;SDS011;27576;53.366;-1.498;2023-09-08T12:47:10;14.98;;;7.80;;
41897;SDS011;27576;53.366;-1.498;2023-09-08T12:49:39;10.23;;;6.90;;
41897;SDS011;27576;53.366;-1.498;2023-09-08T12:52:04;9.73;;;6.57;;
41897;SDS011;27576;53.366;-1.498;2023-09-08T12:54:30;12.48;;;7.75;;
41897;SDS011;27576;53.366;-1.498;2023-09-08T12:56:55;11.27;;;9.85;;
41897;SDS011;27576;53.366;-1.498;2023-09-08T12:59:20;10.68;;;8.27;;
41897;SDS011;27576;53.366;-1.498;2023-09-08T13:01:45;13.07;;;10.07;;
41897;SDS011;27576;53.366;-1.498;2023-09-08T13:04:11;10.52;;;6.68;;
41897;SDS011;27576;53.366;-1.498;2023-09-08T13:06:36;11.07;;;7.88;;
41897;SDS011;27576;53.366;-1.498;2023-09-08T13:09:02;9.50;;;7.22;;
41897;SDS011;27576;53.366;-1.498;2023-09-08T13:11:27;8.68;;;7.43;;
41897;SDS011;27576;53.366;-1.498;2023-09-08T13:13:53;13.30;;;8.45;;
41897;SDS011;27576;53.366;-1.498;2023-09-08T13:16:18;9.23;;;7.75;;
41897;SDS011;27576;53.366;-1.498;2023-09-08T13:18:44;9.85;;;8.40;;
41897;SDS011;27576;53.366;-1.498;2023-09-08T13:21:10;12.55;;;8.70;;
41897;SDS011;27576;53.366;-1.498;2023-09-08T13:23:38;9.00;;;6.97;;
41897;SDS011;27576;53.366;-1.498;2023-09-08T13:26:03;8.75;;;6.43;;
41897;SDS011;27576;53.366;-1.498;2023-09-08T13:28:29;9.18;;;6.45;;
41897;SDS011;27576;53.366;-1.498;2023-09-08T13:30:54;9.65;;;5.82;;
41897;SDS011;27576;53.366;-1.498;2023-09-08T13:33:19;9.20;;;5.78;;
41897;SDS011;27576;53.366;-1.498;2023-09-08T13:35:45;10.60;;;6.00;;
41897;SDS011;27576;53.366;-1.498;2023-09-08T13:38:10;6.15;;;5.05;;
41897;SDS011;27576;53.366;-1.498;2023-09-08T13:40:36;8.65;;;7.00;;
41897;SDS011;27576;53.366;-1.498;2023-09-08T13:43:01;8.32;;;6.18;;
41897;SDS011;27576;53.366;-1.498;2023-09-08T13:45:26;12.07;;;7.40;;
41897;SDS011;27576;53.366;-1.498;2023-09-08T13:47:52;9.98;;;6.30;;
41897;SDS011;27576;53.366;-1.498;2023-09-08T13:50:17;8.02;;;7.22;;
41897;SDS011;27576;53.366;-1.498;2023-09-08T13:52:43;9.98;;;7.15;;
41897;SDS011;27576;53.366;-1.498;2023-09-08T13:55:08;8.95;;;6.75;;
41897;SDS011;27576;53.366;-1.498;2023-09-08T13:57:35;9.10;;;6.30;;
41897;SDS011;27576;53.366;-1.498;2023-09-08T14:00:00;7.63;;;6.93;;
41897;SDS011;27576;53.366;-1.498;2023-09-08T14:02:26;9.02;;;6.07;;
41897;SDS011;27576;53.366;-1.498;2023-09-08T14:04:51;8.45;;;7.50;;
41897;SDS011;27576;53.366;-1.498;2023-09-08T14:07:17;6.40;;;5.78;;
41897;SDS011;27576;53.366;-1.498;2023-09-08T14:09:42;8.00;;;6.10;;
41897;SDS011;27576;53.366;-1.498;2023-09-08T14:12:07;7.53;;;6.40;;
41897;SDS011;27576;53.366;-1.498;2023-09-08T14:14:33;9.30;;;6.80;;
41897;SDS011;27576;53.366;-1.498;2023-09-08T14:16:58;9.52;;;6.88;;
41897;SDS011;27576;53.366;-1.498;2023-09-08T14:19:24;15.70;;;7.60;;
41897;SDS011;27576;53.366;-1.498;2023-09-08T14:21:49;7.78;;;5.72;;